createdAt,value
2023-03-12T00:00:20.829Z,16.10
2023-03-12T00:03:09.068Z,16.00
2023-03-12T00:05:57.673Z,15.90
2023-03-12T00:08:46.386Z,15.90
2023-03-12T00:11:34.510Z,15.90
2023-03-12T00:14:23.873Z,15.80
2023-03-12T00:17:11.905Z,15.80
2023-03-12T00:19:59.908Z,15.70
2023-03-12T00:22:48.004Z,15.70
2023-03-12T00:25:36.958Z,15.60
2023-03-12T00:28:25.096Z,15.50
2023-03-12T00:31:19.570Z,15.50
2023-03-12T00:34:07.618Z,15.40
2023-03-12T00:36:55.680Z,15.50
2023-03-12T00:39:43.768Z,15.50
2023-03-12T00:42:31.829Z,15.50
2023-03-12T00:45:19.822Z,15.60
2023-03-12T00:48:09.291Z,15.60
2023-03-12T00:50:57.347Z,15.70
2023-03-12T00:53:45.370Z,15.70
2023-03-12T00:56:33.447Z,15.80
2023-03-12T00:59:21.485Z,15.80
2023-03-12T01:02:10.059Z,15.80
2023-03-12T01:04:59.405Z,15.90
2023-03-12T01:07:47.553Z,15.90
2023-03-12T01:10:35.680Z,15.90
2023-03-12T01:13:23.856Z,15.90
2023-03-12T01:16:12.060Z,16.00
2023-03-12T01:19:02.232Z,16.20
2023-03-12T01:21:51.638Z,16.10
2023-03-12T01:24:39.664Z,16.10
2023-03-12T01:27:27.906Z,16.00
2023-03-12T01:30:16.309Z,16.00
2023-03-12T01:33:04.398Z,16.00
2023-03-12T01:35:52.510Z,15.90
2023-03-12T01:38:41.880Z,15.80
2023-03-12T01:41:32.429Z,15.80
2023-03-12T01:44:20.569Z,15.80
2023-03-12T01:47:08.851Z,15.70
2023-03-12T01:49:57.422Z,15.60
2023-03-12T01:52:45.475Z,15.60
2023-03-12T01:55:35.009Z,15.60
2023-03-12T01:58:23.307Z,15.50
2023-03-12T02:01:11.466Z,15.50
2023-03-12T02:04:01.786Z,15.40
2023-03-12T02:06:54.333Z,15.30
2023-03-12T02:09:46.750Z,15.30
2023-03-12T02:12:36.112Z,15.30
2023-03-12T02:15:24.501Z,15.30
2023-03-12T02:18:17.478Z,15.50
2023-03-12T02:21:14.832Z,15.60
2023-03-12T02:24:13.624Z,15.70
2023-03-12T02:27:03.281Z,15.80
2023-03-12T02:29:52.020Z,15.80
2023-03-12T02:32:40.912Z,15.90
2023-03-12T02:35:29.039Z,15.90
2023-03-12T02:38:40.122Z,15.90
2023-03-12T02:41:31.809Z,16.00
2023-03-12T02:44:24.837Z,16.00
2023-03-12T02:47:12.965Z,16.00
2023-03-12T02:50:01.310Z,16.00
2023-03-12T02:52:49.419Z,16.00
2023-03-12T02:55:37.450Z,16.10
2023-03-12T02:58:25.555Z,16.10
2023-03-12T03:01:14.932Z,16.10
2023-03-12T03:04:03.819Z,16.10
2023-03-12T03:06:52.486Z,16.00
2023-03-12T03:09:40.499Z,16.00
2023-03-12T03:12:28.534Z,16.00
2023-03-12T03:15:16.533Z,15.90
2023-03-12T03:18:06.322Z,15.90
2023-03-12T03:20:57.912Z,15.90
2023-03-12T03:23:47.185Z,15.80
2023-03-12T03:26:35.311Z,15.80
2023-03-12T03:29:23.337Z,15.70
2023-03-12T03:32:11.381Z,15.60
2023-03-12T03:35:00.952Z,15.60
2023-03-12T03:37:48.989Z,15.50
2023-03-12T03:40:37.124Z,15.50
2023-03-12T03:43:25.958Z,15.40
2023-03-12T03:46:15.152Z,15.30
2023-03-12T03:49:03.229Z,15.50
2023-03-12T03:51:52.885Z,15.40
2023-03-12T03:54:41.290Z,15.40
2023-03-12T03:57:29.777Z,15.50
2023-03-12T04:00:18.350Z,15.50
2023-03-12T04:03:06.646Z,15.60
2023-03-12T04:05:59.836Z,15.60
2023-03-12T04:08:49.295Z,15.70
2023-03-12T04:11:38.113Z,15.80
2023-03-12T04:14:26.217Z,15.80
2023-03-12T04:17:14.267Z,15.90
2023-03-12T04:20:02.288Z,15.90
2023-03-12T04:22:50.335Z,15.90
2023-03-12T04:25:40.344Z,16.00
2023-03-12T04:28:28.507Z,15.80
2023-03-12T04:31:16.624Z,16.00
2023-03-12T04:34:04.734Z,16.00
2023-03-12T04:36:52.848Z,16.10
2023-03-12T04:39:41.383Z,16.10
2023-03-12T04:42:30.762Z,16.10
2023-03-12T04:45:18.901Z,16.00
2023-03-12T04:48:07.338Z,15.90
2023-03-12T04:50:56.122Z,15.90
2023-03-12T04:53:44.410Z,15.80
2023-03-12T04:56:32.883Z,15.80
2023-03-12T04:59:22.221Z,15.70
2023-03-12T05:02:10.265Z,15.70
2023-03-12T05:04:58.361Z,15.60
2023-03-12T05:07:46.394Z,15.50
2023-03-12T05:10:34.480Z,15.50
2023-03-12T05:13:24.059Z,15.50
2023-03-12T05:16:14.167Z,15.40
2023-03-12T05:19:02.653Z,15.50
2023-03-12T05:21:50.672Z,15.30
2023-03-12T05:24:38.668Z,15.40
2023-03-12T05:27:26.905Z,15.40
2023-03-12T05:30:15.321Z,15.50
2023-03-12T05:33:04.813Z,15.50
2023-03-12T05:35:53.055Z,15.50
2023-03-12T05:38:42.626Z,15.50
2023-03-12T05:41:31.294Z,15.50
2023-03-12T05:44:19.348Z,15.50
2023-03-12T05:47:07.919Z,15.60
2023-03-12T05:49:57.279Z,15.60
2023-03-12T05:52:45.333Z,15.70
2023-03-12T05:55:35.849Z,15.70
2023-03-12T05:58:23.878Z,15.70
2023-03-12T06:01:17.197Z,15.70
2023-03-12T06:04:05.556Z,15.70
2023-03-12T06:06:54.897Z,15.70
2023-03-12T06:09:42.930Z,15.70
2023-03-12T06:12:31.132Z,15.70
2023-03-12T06:15:19.362Z,15.60
2023-03-12T06:18:07.436Z,15.60
2023-03-12T06:20:55.464Z,15.50
2023-03-12T06:23:45.596Z,15.50
2023-03-12T06:26:34.106Z,15.40
2023-03-12T06:29:22.123Z,15.40
2023-03-12T06:32:10.395Z,15.40
2023-03-12T06:35:00.574Z,15.40
2023-03-12T06:37:48.639Z,15.40
2023-03-12T06:40:38.144Z,15.50
2023-03-12T06:43:27.714Z,15.50
2023-03-12T06:46:18.141Z,15.50
2023-03-12T06:49:06.382Z,15.50
2023-03-12T06:51:55.962Z,15.60
2023-03-12T06:54:44.174Z,15.60
2023-03-12T06:57:33.494Z,15.60
2023-03-12T07:00:22.289Z,15.70
2023-03-12T07:03:10.348Z,15.80
2023-03-12T07:05:59.266Z,14.80
2023-03-12T07:08:47.612Z,15.80
2023-03-12T07:11:35.640Z,15.80
2023-03-12T07:14:25.069Z,15.80
2023-03-12T07:17:13.144Z,15.80
2023-03-12T07:20:01.178Z,15.70
2023-03-12T07:22:49.205Z,15.70
2023-03-12T07:25:37.678Z,15.70
2023-03-12T07:28:25.718Z,15.60
2023-03-12T07:31:15.086Z,15.60
2023-03-12T07:34:03.875Z,15.60
2023-03-12T07:36:52.284Z,15.50
2023-03-12T07:39:40.617Z,15.50
2023-03-12T07:42:28.847Z,15.40
2023-03-12T07:45:17.134Z,15.40
2023-03-12T07:48:07.897Z,15.40
2023-03-12T07:50:56.066Z,15.50
2023-03-12T07:53:44.407Z,15.60
2023-03-12T07:56:34.913Z,15.70
2023-03-12T07:59:23.909Z,15.80
2023-03-12T08:02:12.170Z,15.90
2023-03-12T08:05:01.904Z,16.00
2023-03-12T08:07:49.981Z,16.00
2023-03-12T08:10:38.867Z,16.10
2023-03-12T08:13:27.350Z,16.00
2023-03-12T08:16:15.685Z,16.10
2023-03-12T08:19:03.889Z,16.30
2023-03-12T08:21:53.754Z,16.20
2023-03-12T08:24:41.828Z,16.20
2023-03-12T08:27:30.244Z,16.20
2023-03-12T08:30:18.657Z,16.20
2023-03-12T08:33:06.736Z,16.20
2023-03-12T08:35:54.994Z,16.30
2023-03-12T08:38:44.458Z,16.30
2023-03-12T08:41:32.511Z,16.30
2023-03-12T08:44:20.564Z,16.30
2023-03-12T08:47:08.589Z,16.30
2023-03-12T08:49:56.659Z,16.30
2023-03-12T08:52:45.424Z,16.30
2023-03-12T08:55:34.812Z,16.10
2023-03-12T08:58:23.192Z,16.20
2023-03-12T09:01:12.516Z,16.20
2023-03-12T09:04:02.395Z,16.20
2023-03-12T09:06:50.508Z,16.10
2023-03-12T09:09:38.540Z,16.10
2023-03-12T09:12:27.962Z,16.00
2023-03-12T09:15:16.186Z,15.90
2023-03-12T09:18:04.295Z,15.90
2023-03-12T09:20:52.406Z,15.90
2023-03-12T09:23:40.759Z,15.90
2023-03-12T09:26:28.842Z,15.90
2023-03-12T09:29:18.253Z,15.90
2023-03-12T09:32:07.017Z,15.90
2023-03-12T09:34:55.256Z,16.00
2023-03-12T09:37:43.385Z,16.00
2023-03-12T09:40:33.612Z,16.10
2023-03-12T09:43:26.867Z,16.00
2023-03-12T09:46:22.845Z,16.10
2023-03-12T09:49:17.413Z,16.10
2023-03-12T09:52:12.377Z,16.10
2023-03-12T09:55:04.345Z,16.20
2023-03-12T09:57:53.565Z,16.20
2023-03-12T10:00:41.578Z,16.00
2023-03-12T10:03:47.839Z,16.40
2023-03-12T10:06:40.765Z,16.40
2023-03-12T10:09:47.710Z,16.10
2023-03-12T10:12:48.049Z,16.40
2023-03-12T10:15:43.198Z,16.40
2023-03-12T10:18:48.969Z,16.40
2023-03-12T10:21:46.123Z,16.30
2023-03-12T10:24:45.738Z,16.20
2023-03-12T10:27:37.028Z,16.30
2023-03-12T10:30:29.222Z,16.20
2023-03-12T10:33:19.673Z,16.20
2023-03-12T10:36:16.457Z,16.10
2023-03-12T10:39:04.935Z,16.10
2023-03-12T10:41:53.102Z,16.00
2023-03-12T10:44:41.353Z,16.00
2023-03-12T10:47:35.641Z,16.00
2023-03-12T10:50:25.343Z,16.10
2023-03-12T10:53:21.290Z,16.20
2023-03-12T10:56:12.452Z,16.20
2023-03-12T10:59:00.822Z,16.30
2023-03-12T11:01:51.271Z,16.30
2023-03-12T11:04:39.311Z,16.30
2023-03-12T11:07:29.693Z,16.30
2023-03-12T11:10:23.117Z,16.40
2023-03-12T11:13:27.507Z,16.40
2023-03-12T11:16:30.771Z,16.40
2023-03-12T11:19:30.661Z,16.40
2023-03-12T11:22:30.353Z,16.50
2023-03-12T11:25:25.574Z,16.50
2023-03-12T11:28:21.739Z,16.50
2023-03-12T11:31:16.701Z,16.50
2023-03-12T11:34:08.229Z,16.60
2023-03-12T11:37:05.724Z,16.60
2023-03-12T11:40:09.835Z,16.60
2023-03-12T11:43:36.055Z,16.60
2023-03-12T11:46:40.540Z,16.60
2023-03-12T11:49:47.862Z,16.40
2023-03-12T11:52:48.452Z,16.60
2023-03-12T11:55:47.805Z,16.50
2023-03-12T11:59:03.576Z,16.60
2023-03-12T12:02:01.338Z,16.50
2023-03-12T12:05:13.654Z,16.40
2023-03-12T12:08:25.600Z,16.30
2023-03-12T12:11:20.712Z,16.40
2023-03-12T12:14:22.665Z,16.40
2023-03-12T12:17:23.488Z,16.40
2023-03-12T12:20:26.734Z,16.40
2023-03-12T12:23:22.761Z,16.50
2023-03-12T12:26:13.274Z,16.40
2023-03-12T12:29:20.429Z,16.50
2023-03-12T12:32:16.245Z,16.50
2023-03-12T12:35:23.549Z,16.50
2023-03-12T12:38:16.562Z,16.50
2023-03-12T12:41:11.005Z,16.60
2023-03-12T12:44:02.086Z,16.50
2023-03-12T12:46:56.439Z,16.60
2023-03-12T12:49:47.405Z,16.70
2023-03-12T12:52:35.901Z,16.70
2023-03-12T12:55:29.231Z,16.70
2023-03-12T12:58:22.870Z,16.70
2023-03-12T13:01:11.682Z,16.70
2023-03-12T13:04:06.920Z,16.70
2023-03-12T13:06:59.033Z,16.70
2023-03-12T13:09:50.476Z,16.70
2023-03-12T13:12:48.610Z,16.70
2023-03-12T13:15:40.609Z,16.70
2023-03-12T13:18:31.298Z,16.60
2023-03-12T13:21:26.932Z,16.60
2023-03-12T13:24:23.652Z,16.50
2023-03-12T13:27:18.948Z,16.50
2023-03-12T13:30:44.418Z,16.40
2023-03-12T13:33:41.389Z,16.40
2023-03-12T13:36:33.578Z,16.30
2023-03-12T13:39:31.923Z,16.10
2023-03-12T13:42:39.898Z,16.20
2023-03-12T13:45:31.796Z,16.30
2023-03-12T13:48:21.895Z,16.40
2023-03-12T13:51:16.720Z,16.40
2023-03-12T13:54:06.337Z,16.50
2023-03-12T13:57:04.162Z,16.60
2023-03-12T13:59:53.100Z,16.50
2023-03-12T14:02:48.134Z,16.60
2023-03-12T14:05:49.672Z,16.60
2023-03-12T14:08:58.459Z,16.60
2023-03-12T14:11:58.921Z,16.60
2023-03-12T14:15:16.420Z,16.70
2023-03-12T14:18:14.651Z,16.70
2023-03-12T14:21:08.162Z,16.70
2023-03-12T14:23:58.426Z,16.70
2023-03-12T14:26:47.781Z,16.70
2023-03-12T14:29:39.990Z,16.60
2023-03-12T14:32:31.609Z,16.70
2023-03-12T14:35:22.775Z,16.70
2023-03-12T14:38:17.772Z,16.70
2023-03-12T14:41:13.377Z,16.70
2023-03-12T14:44:21.218Z,16.80
2023-03-12T14:47:12.094Z,16.70
2023-03-12T14:50:00.201Z,16.70
2023-03-12T14:52:48.388Z,16.70
2023-03-12T14:55:36.412Z,16.70
2023-03-12T14:58:24.462Z,16.50
2023-03-12T15:01:16.106Z,16.50
2023-03-12T15:04:14.559Z,16.40
2023-03-12T15:07:06.197Z,16.40
2023-03-12T15:09:54.709Z,16.40
2023-03-12T15:12:46.714Z,16.40
2023-03-12T15:15:41.369Z,16.40
2023-03-12T15:18:31.462Z,16.40
2023-03-12T15:21:21.924Z,16.40
2023-03-12T15:24:13.813Z,16.50
2023-03-12T15:27:20.379Z,16.40
2023-03-12T15:30:25.055Z,16.50
2023-03-12T15:33:24.503Z,16.50
2023-03-12T15:36:32.640Z,16.50
2023-03-12T15:39:27.613Z,16.80
2023-03-12T15:42:19.428Z,15.80
2023-03-12T15:45:19.173Z,16.60
2023-03-12T15:48:20.232Z,16.60
2023-03-12T15:51:14.192Z,16.70
2023-03-12T15:54:06.965Z,16.70
2023-03-12T15:56:55.464Z,16.70
2023-03-12T15:59:44.013Z,16.70
2023-03-12T16:02:37.531Z,16.70
2023-03-12T16:05:30.001Z,16.70
2023-03-12T16:08:21.977Z,16.70
2023-03-12T16:11:16.978Z,16.60
2023-03-12T16:14:09.136Z,16.60
2023-03-12T16:16:57.251Z,16.60
2023-03-12T16:19:45.528Z,16.30
2023-03-12T16:22:33.548Z,16.40
2023-03-12T16:25:22.179Z,16.30
2023-03-12T16:28:16.196Z,16.30
2023-03-12T16:31:04.591Z,16.30
2023-03-12T16:33:52.626Z,16.30
2023-03-12T16:36:40.658Z,16.30
2023-03-12T16:39:30.258Z,16.30
2023-03-12T16:42:19.929Z,16.40
2023-03-12T16:45:13.404Z,16.50
2023-03-12T16:48:04.847Z,16.50
2023-03-12T16:50:55.757Z,16.50
2023-03-12T16:53:44.044Z,16.60
2023-03-12T16:56:32.138Z,16.60
2023-03-12T16:59:25.900Z,16.60
2023-03-12T17:02:18.900Z,16.60
2023-03-12T17:05:07.971Z,16.60
2023-03-12T17:07:56.583Z,16.60
2023-03-12T17:10:44.909Z,16.60
2023-03-12T17:13:32.996Z,16.60
2023-03-12T17:16:21.322Z,16.60
2023-03-12T17:19:10.702Z,16.70
2023-03-12T17:21:59.460Z,16.70
2023-03-12T17:24:47.658Z,16.70
2023-03-12T17:27:35.681Z,16.70
2023-03-12T17:30:24.442Z,16.70
2023-03-12T17:33:15.129Z,16.60
2023-03-12T17:36:07.264Z,16.60
2023-03-12T17:38:55.277Z,16.50
2023-03-12T17:41:43.405Z,16.50
2023-03-12T17:44:34.653Z,16.50
2023-03-12T17:47:22.688Z,16.40
2023-03-12T17:50:13.843Z,16.30
2023-03-12T17:53:03.217Z,16.30
2023-03-12T17:55:51.260Z,16.30
2023-03-12T17:58:39.483Z,16.40
2023-03-12T18:01:27.606Z,16.50
2023-03-12T18:04:15.701Z,16.50
2023-03-12T18:07:04.513Z,16.50
2023-03-12T18:09:53.867Z,16.30
2023-03-12T18:12:42.249Z,16.50
2023-03-12T18:15:30.299Z,16.50
2023-03-12T18:18:18.330Z,16.50
2023-03-12T18:21:06.826Z,16.50
2023-03-12T18:23:57.468Z,16.50
2023-03-12T18:26:50.493Z,16.50
2023-03-12T18:29:40.586Z,16.60
2023-03-12T18:32:28.664Z,16.60
2023-03-12T18:35:16.876Z,16.60
2023-03-12T18:38:04.933Z,16.60
2023-03-12T18:40:53.681Z,16.60
2023-03-12T18:43:43.388Z,16.60
2023-03-12T18:46:31.472Z,16.60
2023-03-12T18:49:19.601Z,16.50
2023-03-12T18:52:07.659Z,16.50
2023-03-12T18:54:55.659Z,16.50
2023-03-12T18:57:43.930Z,16.40
2023-03-12T19:00:33.317Z,16.40
2023-03-12T19:03:22.280Z,16.40
2023-03-12T19:06:13.287Z,16.40
2023-03-12T19:09:01.306Z,16.30
2023-03-12T19:11:49.671Z,16.20
2023-03-12T19:14:37.886Z,16.20
2023-03-12T19:17:29.230Z,16.30
2023-03-12T19:20:17.854Z,16.30
2023-03-12T19:23:06.036Z,16.30
2023-03-12T19:25:54.069Z,16.30
2023-03-12T19:28:42.977Z,16.40
2023-03-12T19:31:31.109Z,16.40
2023-03-12T19:34:21.917Z,16.40
2023-03-12T19:37:09.990Z,16.40
2023-03-12T19:39:57.989Z,16.40
2023-03-12T19:42:46.056Z,16.40
2023-03-12T19:45:37.518Z,16.40
2023-03-12T19:48:26.131Z,16.50
2023-03-12T19:51:15.488Z,16.40
2023-03-12T19:54:03.587Z,16.40
2023-03-12T19:56:51.698Z,16.50
2023-03-12T19:59:39.696Z,16.50
2023-03-12T20:02:27.878Z,16.40
2023-03-12T20:05:17.200Z,16.40
2023-03-12T20:08:07.064Z,16.40
2023-03-12T20:11:02.605Z,16.40
2023-03-12T20:13:50.621Z,16.40
2023-03-12T20:16:39.006Z,16.50
2023-03-12T20:19:27.132Z,16.40
2023-03-12T20:22:15.419Z,16.40
2023-03-12T20:25:05.495Z,16.30
2023-03-12T20:27:53.516Z,16.30
2023-03-12T20:30:41.573Z,16.30
2023-03-12T20:33:29.594Z,16.30
2023-03-12T20:36:17.639Z,16.30
2023-03-12T20:39:05.677Z,16.30
2023-03-12T20:41:55.008Z,16.30
2023-03-12T20:44:43.022Z,16.40
2023-03-12T20:47:31.187Z,16.40
2023-03-12T20:50:19.215Z,16.40
2023-03-12T20:53:07.558Z,16.50
2023-03-12T20:55:55.654Z,16.50
2023-03-12T20:58:44.996Z,16.50
2023-03-12T21:01:33.200Z,16.50
2023-03-12T21:04:21.301Z,16.60
2023-03-12T21:07:09.396Z,16.60
2023-03-12T21:09:57.713Z,16.60
2023-03-12T21:12:45.741Z,16.70
2023-03-12T21:15:35.082Z,16.70
2023-03-12T21:18:23.873Z,16.70
2023-03-12T21:21:12.090Z,16.80
2023-03-12T21:24:01.275Z,16.80
2023-03-12T21:26:49.315Z,16.80
2023-03-12T21:29:37.360Z,16.80
2023-03-12T21:32:26.852Z,16.50
2023-03-12T21:35:14.907Z,16.80
2023-03-12T21:38:03.427Z,16.70
2023-03-12T21:40:54.124Z,16.70
2023-03-12T21:43:42.868Z,16.70
2023-03-12T21:46:31.008Z,16.60
2023-03-12T21:49:20.408Z,16.60
2023-03-12T21:52:08.521Z,16.50
2023-03-12T21:54:56.554Z,16.50
2023-03-12T21:57:45.961Z,16.30
2023-03-12T22:00:34.018Z,16.30
2023-03-12T22:03:22.585Z,16.30
2023-03-12T22:06:12.883Z,16.30
2023-03-12T22:09:00.896Z,16.30
2023-03-12T22:11:49.336Z,16.40
2023-03-12T22:14:37.346Z,16.40
2023-03-12T22:17:25.543Z,16.40
2023-03-12T22:20:14.014Z,16.60
2023-03-12T22:23:03.376Z,16.40
2023-03-12T22:25:51.610Z,16.40
2023-03-12T22:28:39.659Z,16.50
2023-03-12T22:31:29.546Z,16.50
2023-03-12T22:34:17.699Z,16.50
2023-03-12T22:37:05.759Z,16.50
2023-03-12T22:39:58.186Z,16.60
2023-03-12T22:42:50.177Z,16.50
2023-03-12T22:45:38.207Z,16.60
2023-03-12T22:48:26.324Z,16.60
2023-03-12T22:51:15.014Z,16.60
2023-03-12T22:54:03.105Z,16.60
2023-03-12T22:56:52.460Z,16.70
2023-03-12T22:59:40.548Z,16.60
2023-03-12T23:02:28.568Z,16.70
2023-03-12T23:05:16.655Z,16.60
2023-03-12T23:08:05.022Z,16.60
2023-03-12T23:10:54.441Z,16.60
2023-03-12T23:13:45.445Z,16.50
2023-03-12T23:16:33.552Z,16.40
2023-03-12T23:19:22.058Z,16.40
2023-03-12T23:22:10.206Z,16.30
2023-03-12T23:24:58.231Z,16.40
2023-03-12T23:27:46.317Z,16.30
2023-03-12T23:30:35.674Z,16.40
2023-03-12T23:33:23.921Z,16.40
2023-03-12T23:36:14.166Z,16.40
2023-03-12T23:39:03.423Z,16.40
2023-03-12T23:41:51.505Z,16.40
2023-03-12T23:44:39.855Z,16.40
2023-03-12T23:47:29.280Z,16.40
